sensor_id;sensor_type;location;lat;lon;timestamp;temperature;humidity
46732;DHT22;32477;51.474;5.696;2023-04-16T00:00:40;8.20;99.90
46732;DHT22;32477;51.474;5.696;2023-04-16T00:03:06;8.20;99.90
46732;DHT22;32477;51.474;5.696;2023-04-16T00:05:31;8.20;99.90
46732;DHT22;32477;51.474;5.696;2023-04-16T00:07:57;8.20;99.90
46732;DHT22;32477;51.474;5.696;2023-04-16T00:10:22;8.20;99.90
46732;DHT22;32477;51.474;5.696;2023-04-16T00:12:48;8.20;99.90
46732;DHT22;32477;51.474;5.696;2023-04-16T00:15:14;8.10;99.90
46732;DHT22;32477;51.474;5.696;2023-04-16T00:17:40;8.20;99.90
46732;DHT22;32477;51.474;5.696;2023-04-16T00:20:06;8.10;99.90
46732;DHT22;32477;51.474;5.696;2023-04-16T00:22:33;8.20;99.90
46732;DHT22;32477;51.474;5.696;2023-04-16T00:24:59;8.20;99.90
46732;DHT22;32477;51.474;5.696;2023-04-16T00:27:24;8.20;99.90
46732;DHT22;32477;51.474;5.696;2023-04-16T00:29:50;8.20;99.90
46732;DHT22;32477;51.474;5.696;2023-04-16T00:32:16;8.10;99.90
46732;DHT22;32477;51.474;5.696;2023-04-16T00:34:42;8.20;99.90
46732;DHT22;32477;51.474;5.696;2023-04-16T00:37:07;8.10;99.90
46732;DHT22;32477;51.474;5.696;2023-04-16T00:39:33;8.10;99.90
46732;DHT22;32477;51.474;5.696;2023-04-16T00:41:58;8.10;99.90
46732;DHT22;32477;51.474;5.696;2023-04-16T00:44:24;8.20;99.90
46732;DHT22;32477;51.474;5.696;2023-04-16T00:46:50;8.10;99.90
46732;DHT22;32477;51.474;5.696;2023-04-16T00:49:15;8.20;99.90
46732;DHT22;32477;51.474;5.696;2023-04-16T00:51:41;8.20;99.90
46732;DHT22;32477;51.474;5.696;2023-04-16T00:54:07;8.20;99.90
46732;DHT22;32477;51.474;5.696;2023-04-16T00:56:34;8.20;99.90
46732;DHT22;32477;51.474;5.696;2023-04-16T00:59:01;8.20;99.90
46732;DHT22;32477;51.474;5.696;2023-04-16T01:01:26;8.20;99.90
46732;DHT22;32477;51.474;5.696;2023-04-16T01:03:53;8.20;99.90
46732;DHT22;32477;51.474;5.696;2023-04-16T01:06:19;8.20;99.90
46732;DHT22;32477;51.474;5.696;2023-04-16T01:08:45;8.20;99.90
46732;DHT22;32477;51.474;5.696;2023-04-16T01:11:13;8.20;99.90
46732;DHT22;32477;51.474;5.696;2023-04-16T01:13:39;8.30;99.90
46732;DHT22;32477;51.474;5.696;2023-04-16T01:16:06;8.30;99.90
46732;DHT22;32477;51.474;5.696;2023-04-16T01:18:33;8.20;99.90
46732;DHT22;32477;51.474;5.696;2023-04-16T01:20:59;8.30;99.90
46732;DHT22;32477;51.474;5.696;2023-04-16T01:23:24;8.30;99.90
46732;DHT22;32477;51.474;5.696;2023-04-16T01:25:50;8.30;99.90
46732;DHT22;32477;51.474;5.696;2023-04-16T01:28:16;8.20;99.90
46732;DHT22;32477;51.474;5.696;2023-04-16T01:30:41;8.20;99.90
46732;DHT22;32477;51.474;5.696;2023-04-16T01:33:09;8.30;99.90
46732;DHT22;32477;51.474;5.696;2023-04-16T01:35:35;8.30;99.90
46732;DHT22;32477;51.474;5.696;2023-04-16T01:38:01;8.20;99.90
46732;DHT22;32477;51.474;5.696;2023-04-16T01:40:27;8.20;99.90
46732;DHT22;32477;51.474;5.696;2023-04-16T01:42:52;8.20;99.90
46732;DHT22;32477;51.474;5.696;2023-04-16T01:45:19;8.20;99.90
46732;DHT22;32477;51.474;5.696;2023-04-16T01:47:45;8.20;99.90
46732;DHT22;32477;51.474;5.696;2023-04-16T01:50:11;8.20;99.90
46732;DHT22;32477;51.474;5.696;2023-04-16T01:52:37;8.20;99.90
46732;DHT22;32477;51.474;5.696;2023-04-16T01:55:02;8.20;99.90
46732;DHT22;32477;51.474;5.696;2023-04-16T01:57:28;8.30;99.90
46732;DHT22;32477;51.474;5.696;2023-04-16T01:59:54;8.30;99.90
46732;DHT22;32477;51.474;5.696;2023-04-16T02:02:19;8.30;99.90
46732;DHT22;32477;51.474;5.696;2023-04-16T02:04:48;8.20;99.90
46732;DHT22;32477;51.474;5.696;2023-04-16T02:07:13;8.30;99.90
46732;DHT22;32477;51.474;5.696;2023-04-16T02:09:39;8.30;99.90
46732;DHT22;32477;51.474;5.696;2023-04-16T02:12:05;8.30;99.90
46732;DHT22;32477;51.474;5.696;2023-04-16T02:14:32;8.30;99.90
46732;DHT22;32477;51.474;5.696;2023-04-16T02:16:59;8.30;99.90
46732;DHT22;32477;51.474;5.696;2023-04-16T02:19:24;8.30;99.90
46732;DHT22;32477;51.474;5.696;2023-04-16T02:21:51;8.30;99.90
46732;DHT22;32477;51.474;5.696;2023-04-16T02:24:17;8.30;99.90
46732;DHT22;32477;51.474;5.696;2023-04-16T02:26:43;8.30;99.90
46732;DHT22;32477;51.474;5.696;2023-04-16T02:29:09;8.40;99.90
46732;DHT22;32477;51.474;5.696;2023-04-16T02:31:35;8.30;99.90
46732;DHT22;32477;51.474;5.696;2023-04-16T02:34:01;8.40;99.90
46732;DHT22;32477;51.474;5.696;2023-04-16T02:36:27;8.40;99.90
46732;DHT22;32477;51.474;5.696;2023-04-16T02:38:53;8.40;99.90
46732;DHT22;32477;51.474;5.696;2023-04-16T02:41:18;8.40;99.90
46732;DHT22;32477;51.474;5.696;2023-04-16T02:43:44;8.40;99.90
46732;DHT22;32477;51.474;5.696;2023-04-16T02:46:10;8.40;99.90
46732;DHT22;32477;51.474;5.696;2023-04-16T02:48:35;8.40;99.90
46732;DHT22;32477;51.474;5.696;2023-04-16T02:51:01;8.40;99.90
46732;DHT22;32477;51.474;5.696;2023-04-16T02:53:27;8.40;99.90
46732;DHT22;32477;51.474;5.696;2023-04-16T02:55:53;8.40;99.90
46732;DHT22;32477;51.474;5.696;2023-04-16T02:58:24;8.40;99.90
46732;DHT22;32477;51.474;5.696;2023-04-16T03:00:51;8.40;99.90
46732;DHT22;32477;51.474;5.696;2023-04-16T03:03:16;8.40;99.90
46732;DHT22;32477;51.474;5.696;2023-04-16T03:05:42;8.40;99.90
46732;DHT22;32477;51.474;5.696;2023-04-16T03:08:08;8.50;99.90
46732;DHT22;32477;51.474;5.696;2023-04-16T03:10:35;8.50;99.90
46732;DHT22;32477;51.474;5.696;2023-04-16T03:13:01;8.50;99.90
46732;DHT22;32477;51.474;5.696;2023-04-16T03:15:26;8.40;99.90
46732;DHT22;32477;51.474;5.696;2023-04-16T03:17:52;8.50;99.90
46732;DHT22;32477;51.474;5.696;2023-04-16T03:20:18;8.50;99.90
46732;DHT22;32477;51.474;5.696;2023-04-16T03:22:45;8.40;99.90
46732;DHT22;32477;51.474;5.696;2023-04-16T03:25:10;8.50;99.90
46732;DHT22;32477;51.474;5.696;2023-04-16T03:27:36;8.50;99.90
46732;DHT22;32477;51.474;5.696;2023-04-16T03:30:07;8.40;99.90
46732;DHT22;32477;51.474;5.696;2023-04-16T03:32:35;8.50;99.90
46732;DHT22;32477;51.474;5.696;2023-04-16T03:35:05;8.50;99.90
46732;DHT22;32477;51.474;5.696;2023-04-16T03:37:32;8.50;99.90
46732;DHT22;32477;51.474;5.696;2023-04-16T03:39:57;8.40;99.90
46732;DHT22;32477;51.474;5.696;2023-04-16T03:42:23;8.50;99.90
46732;DHT22;32477;51.474;5.696;2023-04-16T03:44:49;8.50;99.90
46732;DHT22;32477;51.474;5.696;2023-04-16T03:47:14;8.40;99.90
46732;DHT22;32477;51.474;5.696;2023-04-16T03:49:40;8.50;99.90
46732;DHT22;32477;51.474;5.696;2023-04-16T03:52:06;8.50;99.90
46732;DHT22;32477;51.474;5.696;2023-04-16T03:54:31;8.40;99.90
46732;DHT22;32477;51.474;5.696;2023-04-16T03:56:57;8.50;99.90
46732;DHT22;32477;51.474;5.696;2023-04-16T03:59:23;8.40;99.90
46732;DHT22;32477;51.474;5.696;2023-04-16T04:01:48;8.40;99.90
46732;DHT22;32477;51.474;5.696;2023-04-16T04:04:14;8.40;99.90
46732;DHT22;32477;51.474;5.696;2023-04-16T04:06:40;8.50;99.90
46732;DHT22;32477;51.474;5.696;2023-04-16T04:09:05;8.40;99.90
46732;DHT22;32477;51.474;5.696;2023-04-16T04:11:31;8.50;99.90
46732;DHT22;32477;51.474;5.696;2023-04-16T04:13:57;8.50;99.90
46732;DHT22;32477;51.474;5.696;2023-04-16T04:16:22;8.40;99.90
46732;DHT22;32477;51.474;5.696;2023-04-16T04:18:48;8.50;99.90
46732;DHT22;32477;51.474;5.696;2023-04-16T04:21:14;8.40;99.90
46732;DHT22;32477;51.474;5.696;2023-04-16T04:23:39;8.40;99.90
46732;DHT22;32477;51.474;5.696;2023-04-16T04:26:07;8.40;99.90
46732;DHT22;32477;51.474;5.696;2023-04-16T04:28:33;8.40;99.90
46732;DHT22;32477;51.474;5.696;2023-04-16T04:30:59;8.50;99.90
46732;DHT22;32477;51.474;5.696;2023-04-16T04:33:26;8.40;99.90
46732;DHT22;32477;51.474;5.696;2023-04-16T04:35:52;8.40;99.90
46732;DHT22;32477;51.474;5.696;2023-04-16T04:38:18;8.40;99.90
46732;DHT22;32477;51.474;5.696;2023-04-16T04:40:46;8.40;99.90
46732;DHT22;32477;51.474;5.696;2023-04-16T04:43:12;8.40;99.90
46732;DHT22;32477;51.474;5.696;2023-04-16T04:45:38;8.40;99.90
46732;DHT22;32477;51.474;5.696;2023-04-16T04:48:03;8.40;99.90
46732;DHT22;32477;51.474;5.696;2023-04-16T04:50:29;8.40;99.90
46732;DHT22;32477;51.474;5.696;2023-04-16T04:52:55;8.40;99.90
46732;DHT22;32477;51.474;5.696;2023-04-16T04:55:21;8.40;99.90
46732;DHT22;32477;51.474;5.696;2023-04-16T04:57:48;8.40;99.90
46732;DHT22;32477;51.474;5.696;2023-04-16T05:00:14;8.40;99.90
46732;DHT22;32477;51.474;5.696;2023-04-16T05:02:40;8.40;99.90
46732;DHT22;32477;51.474;5.696;2023-04-16T05:05:06;8.40;99.90
46732;DHT22;32477;51.474;5.696;2023-04-16T05:07:32;8.40;99.90
46732;DHT22;32477;51.474;5.696;2023-04-16T05:09:58;8.40;99.90
46732;DHT22;32477;51.474;5.696;2023-04-16T05:12:23;8.40;99.90
46732;DHT22;32477;51.474;5.696;2023-04-16T05:14:49;8.40;99.90
46732;DHT22;32477;51.474;5.696;2023-04-16T05:17:15;8.40;99.90
46732;DHT22;32477;51.474;5.696;2023-04-16T05:19:43;8.50;99.90
46732;DHT22;32477;51.474;5.696;2023-04-16T05:22:09;8.40;99.90
46732;DHT22;32477;51.474;5.696;2023-04-16T05:24:35;8.50;99.90
46732;DHT22;32477;51.474;5.696;2023-04-16T05:27:00;8.50;99.90
46732;DHT22;32477;51.474;5.696;2023-04-16T05:29:26;8.50;99.90
46732;DHT22;32477;51.474;5.696;2023-04-16T05:31:52;8.40;99.90
46732;DHT22;32477;51.474;5.696;2023-04-16T05:34:18;8.50;99.90
46732;DHT22;32477;51.474;5.696;2023-04-16T05:36:43;8.40;99.90
46732;DHT22;32477;51.474;5.696;2023-04-16T05:39:10;8.40;99.90
46732;DHT22;32477;51.474;5.696;2023-04-16T05:41:36;8.50;99.90
46732;DHT22;32477;51.474;5.696;2023-04-16T05:44:01;8.50;99.90
46732;DHT22;32477;51.474;5.696;2023-04-16T05:46:27;8.50;99.90
46732;DHT22;32477;51.474;5.696;2023-04-16T05:48:53;8.50;99.90
46732;DHT22;32477;51.474;5.696;2023-04-16T05:51:19;8.50;99.90
46732;DHT22;32477;51.474;5.696;2023-04-16T05:53:47;8.50;99.90
46732;DHT22;32477;51.474;5.696;2023-04-16T05:56:13;8.50;99.90
46732;DHT22;32477;51.474;5.696;2023-04-16T05:58:38;8.50;99.90
46732;DHT22;32477;51.474;5.696;2023-04-16T06:01:04;8.50;99.90
46732;DHT22;32477;51.474;5.696;2023-04-16T06:03:30;8.50;99.90
46732;DHT22;32477;51.474;5.696;2023-04-16T06:05:55;8.60;99.90
46732;DHT22;32477;51.474;5.696;2023-04-16T06:08:21;8.60;99.90
46732;DHT22;32477;51.474;5.696;2023-04-16T06:10:47;8.50;99.90
46732;DHT22;32477;51.474;5.696;2023-04-16T06:13:13;8.60;99.90
46732;DHT22;32477;51.474;5.696;2023-04-16T06:15:39;8.50;99.90
46732;DHT22;32477;51.474;5.696;2023-04-16T06:18:05;8.60;99.90
46732;DHT22;32477;51.474;5.696;2023-04-16T06:20:30;8.60;99.90
46732;DHT22;32477;51.474;5.696;2023-04-16T06:22:56;8.60;99.90
46732;DHT22;32477;51.474;5.696;2023-04-16T06:25:22;8.60;99.90
46732;DHT22;32477;51.474;5.696;2023-04-16T06:27:47;8.70;99.90
46732;DHT22;32477;51.474;5.696;2023-04-16T06:30:14;8.60;99.90
46732;DHT22;32477;51.474;5.696;2023-04-16T06:32:41;8.70;99.90
46732;DHT22;32477;51.474;5.696;2023-04-16T06:35:07;8.70;99.90
46732;DHT22;32477;51.474;5.696;2023-04-16T06:37:33;8.70;99.90
46732;DHT22;32477;51.474;5.696;2023-04-16T06:39:58;8.70;99.90
46732;DHT22;32477;51.474;5.696;2023-04-16T06:42:24;8.70;99.90
46732;DHT22;32477;51.474;5.696;2023-04-16T06:44:49;8.70;99.90
46732;DHT22;32477;51.474;5.696;2023-04-16T06:47:15;8.70;99.90
46732;DHT22;32477;51.474;5.696;2023-04-16T06:49:41;8.70;99.90
46732;DHT22;32477;51.474;5.696;2023-04-16T06:52:06;8.70;99.90
46732;DHT22;32477;51.474;5.696;2023-04-16T06:54:32;8.70;99.90
46732;DHT22;32477;51.474;5.696;2023-04-16T06:56:58;8.70;99.90
46732;DHT22;32477;51.474;5.696;2023-04-16T06:59:23;8.70;99.90
46732;DHT22;32477;51.474;5.696;2023-04-16T07:01:50;8.80;99.90
46732;DHT22;32477;51.474;5.696;2023-04-16T07:04:16;8.80;99.90
46732;DHT22;32477;51.474;5.696;2023-04-16T07:06:42;8.80;99.90
46732;DHT22;32477;51.474;5.696;2023-04-16T07:09:07;8.80;99.90
46732;DHT22;32477;51.474;5.696;2023-04-16T07:11:33;8.80;99.90
46732;DHT22;32477;51.474;5.696;2023-04-16T07:13:58;8.90;99.90
46732;DHT22;32477;51.474;5.696;2023-04-16T07:16:24;8.90;99.90
46732;DHT22;32477;51.474;5.696;2023-04-16T07:18:50;8.90;99.90
46732;DHT22;32477;51.474;5.696;2023-04-16T07:21:15;8.90;99.90
46732;DHT22;32477;51.474;5.696;2023-04-16T07:23:41;8.90;99.90
46732;DHT22;32477;51.474;5.696;2023-04-16T07:26:07;9.00;99.90
46732;DHT22;32477;51.474;5.696;2023-04-16T07:28:32;8.90;99.90
46732;DHT22;32477;51.474;5.696;2023-04-16T07:30:58;9.00;99.90
46732;DHT22;32477;51.474;5.696;2023-04-16T07:33:24;9.10;99.90
46732;DHT22;32477;51.474;5.696;2023-04-16T07:35:50;9.00;99.90
46732;DHT22;32477;51.474;5.696;2023-04-16T07:38:16;9.00;99.90
46732;DHT22;32477;51.474;5.696;2023-04-16T07:40:41;9.00;99.90
46732;DHT22;32477;51.474;5.696;2023-04-16T07:43:07;9.10;99.90
46732;DHT22;32477;51.474;5.696;2023-04-16T07:45:33;9.10;99.90
46732;DHT22;32477;51.474;5.696;2023-04-16T07:47:59;9.10;99.90
46732;DHT22;32477;51.474;5.696;2023-04-16T07:50:24;9.10;99.90
46732;DHT22;32477;51.474;5.696;2023-04-16T07:52:50;9.20;99.90
46732;DHT22;32477;51.474;5.696;2023-04-16T07:55:16;9.20;99.90
46732;DHT22;32477;51.474;5.696;2023-04-16T07:57:41;9.20;99.90
46732;DHT22;32477;51.474;5.696;2023-04-16T08:00:08;9.20;99.90
46732;DHT22;32477;51.474;5.696;2023-04-16T08:02:33;9.20;99.90
46732;DHT22;32477;51.474;5.696;2023-04-16T08:04:59;9.30;99.90
46732;DHT22;32477;51.474;5.696;2023-04-16T08:07:25;9.30;99.90
46732;DHT22;32477;51.474;5.696;2023-04-16T08:09:51;9.30;99.90
46732;DHT22;32477;51.474;5.696;2023-04-16T08:12:17;9.30;99.90
46732;DHT22;32477;51.474;5.696;2023-04-16T08:14:44;9.40;99.90
46732;DHT22;32477;51.474;5.696;2023-04-16T08:17:10;9.40;99.90
46732;DHT22;32477;51.474;5.696;2023-04-16T08:19:36;9.40;99.90
46732;DHT22;32477;51.474;5.696;2023-04-16T08:22:02;9.40;99.90
46732;DHT22;32477;51.474;5.696;2023-04-16T08:24:27;9.40;99.90
46732;DHT22;32477;51.474;5.696;2023-04-16T08:26:53;9.50;99.90
46732;DHT22;32477;51.474;5.696;2023-04-16T08:29:19;9.50;99.90
46732;DHT22;32477;51.474;5.696;2023-04-16T08:31:45;9.50;99.90
46732;DHT22;32477;51.474;5.696;2023-04-16T08:34:11;9.60;99.90
46732;DHT22;32477;51.474;5.696;2023-04-16T08:36:37;9.60;99.90
46732;DHT22;32477;51.474;5.696;2023-04-16T08:39:02;9.60;99.90
46732;DHT22;32477;51.474;5.696;2023-04-16T08:41:31;9.60;99.90
46732;DHT22;32477;51.474;5.696;2023-04-16T08:43:59;9.60;99.90
46732;DHT22;32477;51.474;5.696;2023-04-16T08:46:25;9.60;99.90
46732;DHT22;32477;51.474;5.696;2023-04-16T08:48:53;9.60;99.90
46732;DHT22;32477;51.474;5.696;2023-04-16T08:51:22;9.60;99.90
46732;DHT22;32477;51.474;5.696;2023-04-16T08:53:51;9.70;99.90
46732;DHT22;32477;51.474;5.696;2023-04-16T08:56:20;9.80;99.90
46732;DHT22;32477;51.474;5.696;2023-04-16T08:58:49;9.90;99.90
46732;DHT22;32477;51.474;5.696;2023-04-16T09:01:16;9.90;99.90
46732;DHT22;32477;51.474;5.696;2023-04-16T09:03:47;10.00;99.90
46732;DHT22;32477;51.474;5.696;2023-04-16T09:06:14;10.20;99.90
46732;DHT22;32477;51.474;5.696;2023-04-16T09:08:42;10.30;99.90
46732;DHT22;32477;51.474;5.696;2023-04-16T09:11:08;10.40;99.90
46732;DHT22;32477;51.474;5.696;2023-04-16T09:13:36;10.50;99.90
46732;DHT22;32477;51.474;5.696;2023-04-16T09:16:03;10.40;99.90
46732;DHT22;32477;51.474;5.696;2023-04-16T09:18:29;10.40;99.90
46732;DHT22;32477;51.474;5.696;2023-04-16T09:20:55;10.40;99.90
46732;DHT22;32477;51.474;5.696;2023-04-16T09:23:21;10.30;99.90
46732;DHT22;32477;51.474;5.696;2023-04-16T09:25:47;10.30;99.90
46732;DHT22;32477;51.474;5.696;2023-04-16T09:28:45;10.40;99.90
46732;DHT22;32477;51.474;5.696;2023-04-16T09:31:12;10.50;99.90
46732;DHT22;32477;51.474;5.696;2023-04-16T09:33:38;10.50;99.90
46732;DHT22;32477;51.474;5.696;2023-04-16T09:36:04;10.60;99.90
46732;DHT22;32477;51.474;5.696;2023-04-16T09:38:48;10.60;99.90
46732;DHT22;32477;51.474;5.696;2023-04-16T09:41:14;10.70;99.90
46732;DHT22;32477;51.474;5.696;2023-04-16T09:43:48;10.60;99.90
46732;DHT22;32477;51.474;5.696;2023-04-16T09:46:14;10.90;99.90
46732;DHT22;32477;51.474;5.696;2023-04-16T09:48:39;10.90;99.90
46732;DHT22;32477;51.474;5.696;2023-04-16T09:51:05;11.00;99.90
46732;DHT22;32477;51.474;5.696;2023-04-16T09:53:31;11.20;99.90
46732;DHT22;32477;51.474;5.696;2023-04-16T09:55:59;11.30;99.90
46732;DHT22;32477;51.474;5.696;2023-04-16T09:58:24;11.30;99.90
46732;DHT22;32477;51.474;5.696;2023-04-16T10:01:06;11.60;99.90
46732;DHT22;32477;51.474;5.696;2023-04-16T10:03:34;11.80;99.90
46732;DHT22;32477;51.474;5.696;2023-04-16T10:08:51;12.20;99.90
46732;DHT22;32477;51.474;5.696;2023-04-16T10:11:18;12.40;99.90
46732;DHT22;32477;51.474;5.696;2023-04-16T10:13:45;12.50;99.90
46732;DHT22;32477;51.474;5.696;2023-04-16T10:16:11;12.20;99.90
46732;DHT22;32477;51.474;5.696;2023-04-16T10:18:38;12.10;99.90
46732;DHT22;32477;51.474;5.696;2023-04-16T10:21:04;11.90;99.90
46732;DHT22;32477;51.474;5.696;2023-04-16T10:23:31;12.00;99.90
46732;DHT22;32477;51.474;5.696;2023-04-16T10:25:58;12.20;99.90
46732;DHT22;32477;51.474;5.696;2023-04-16T10:28:24;12.30;99.90
46732;DHT22;32477;51.474;5.696;2023-04-16T10:30:51;12.20;99.90
46732;DHT22;32477;51.474;5.696;2023-04-16T10:33:22;12.30;99.90
46732;DHT22;32477;51.474;5.696;2023-04-16T10:35:49;12.30;99.90
46732;DHT22;32477;51.474;5.696;2023-04-16T10:38:25;12.20;99.90
46732;DHT22;32477;51.474;5.696;2023-04-16T10:41:20;12.10;99.90
46732;DHT22;32477;51.474;5.696;2023-04-16T10:43:47;12.10;99.90
46732;DHT22;32477;51.474;5.696;2023-04-16T10:46:33;12.00;99.90
46732;DHT22;32477;51.474;5.696;2023-04-16T10:49:24;11.90;99.90
46732;DHT22;32477;51.474;5.696;2023-04-16T10:51:56;12.10;99.90
46732;DHT22;32477;51.474;5.696;2023-04-16T10:54:25;12.20;99.90
46732;DHT22;32477;51.474;5.696;2023-04-16T10:56:51;12.30;99.90
46732;DHT22;32477;51.474;5.696;2023-04-16T10:59:18;12.50;99.90
46732;DHT22;32477;51.474;5.696;2023-04-16T11:01:46;12.80;99.90
46732;DHT22;32477;51.474;5.696;2023-04-16T11:07:13;12.80;99.90
46732;DHT22;32477;51.474;5.696;2023-04-16T11:09:58;12.80;99.90
46732;DHT22;32477;51.474;5.696;2023-04-16T11:12:25;12.80;99.90
46732;DHT22;32477;51.474;5.696;2023-04-16T11:15:01;12.90;99.90
46732;DHT22;32477;51.474;5.696;2023-04-16T11:17:30;13.30;99.90
46732;DHT22;32477;51.474;5.696;2023-04-16T11:19:56;13.40;99.90
46732;DHT22;32477;51.474;5.696;2023-04-16T11:22:21;13.40;99.90
46732;DHT22;32477;51.474;5.696;2023-04-16T11:24:53;13.20;99.90
46732;DHT22;32477;51.474;5.696;2023-04-16T11:27:19;13.10;99.90
46732;DHT22;32477;51.474;5.696;2023-04-16T11:29:45;13.00;99.90
46732;DHT22;32477;51.474;5.696;2023-04-16T11:32:19;13.00;99.90
46732;DHT22;32477;51.474;5.696;2023-04-16T11:34:46;13.30;99.90
46732;DHT22;32477;51.474;5.696;2023-04-16T11:37:12;13.50;99.90
46732;DHT22;32477;51.474;5.696;2023-04-16T11:39:56;13.50;99.90
46732;DHT22;32477;51.474;5.696;2023-04-16T11:42:34;13.70;99.90
46732;DHT22;32477;51.474;5.696;2023-04-16T11:45:05;13.90;99.90
46732;DHT22;32477;51.474;5.696;2023-04-16T11:47:31;14.10;99.90
46732;DHT22;32477;51.474;5.696;2023-04-16T11:49:57;14.20;99.90
46732;DHT22;32477;51.474;5.696;2023-04-16T11:52:39;14.10;99.90
46732;DHT22;32477;51.474;5.696;2023-04-16T11:55:05;13.90;99.90
46732;DHT22;32477;51.474;5.696;2023-04-16T11:57:31;13.90;99.90
46732;DHT22;32477;51.474;5.696;2023-04-16T11:59:58;14.10;99.90
46732;DHT22;32477;51.474;5.696;2023-04-16T12:02:44;14.40;99.90
46732;DHT22;32477;51.474;5.696;2023-04-16T12:05:33;14.30;99.90
46732;DHT22;32477;51.474;5.696;2023-04-16T12:08:04;14.40;99.90
46732;DHT22;32477;51.474;5.696;2023-04-16T12:10:32;14.50;99.90
46732;DHT22;32477;51.474;5.696;2023-04-16T12:13:15;14.30;99.90
46732;DHT22;32477;51.474;5.696;2023-04-16T12:15:51;14.30;99.90
46732;DHT22;32477;51.474;5.696;2023-04-16T12:18:19;13.80;99.90
46732;DHT22;32477;51.474;5.696;2023-04-16T12:20:45;13.70;99.90
46732;DHT22;32477;51.474;5.696;2023-04-16T12:23:28;13.90;99.90
46732;DHT22;32477;51.474;5.696;2023-04-16T12:25:55;14.10;99.90
46732;DHT22;32477;51.474;5.696;2023-04-16T12:28:31;14.40;99.90
46732;DHT22;32477;51.474;5.696;2023-04-16T12:30:57;14.50;99.90
46732;DHT22;32477;51.474;5.696;2023-04-16T12:33:22;15.00;99.90
46732;DHT22;32477;51.474;5.696;2023-04-16T12:35:48;15.10;99.90
46732;DHT22;32477;51.474;5.696;2023-04-16T12:38:14;14.90;99.90
46732;DHT22;32477;51.474;5.696;2023-04-16T12:40:41;14.70;99.90
46732;DHT22;32477;51.474;5.696;2023-04-16T12:43:06;14.60;99.90
46732;DHT22;32477;51.474;5.696;2023-04-16T12:45:33;14.20;99.90
46732;DHT22;32477;51.474;5.696;2023-04-16T12:47:59;13.90;99.90
46732;DHT22;32477;51.474;5.696;2023-04-16T12:50:25;13.60;99.90
46732;DHT22;32477;51.474;5.696;2023-04-16T12:52:51;13.70;99.90
46732;DHT22;32477;51.474;5.696;2023-04-16T12:55:16;13.80;99.90
46732;DHT22;32477;51.474;5.696;2023-04-16T12:57:42;13.70;99.90
46732;DHT22;32477;51.474;5.696;2023-04-16T13:00:09;13.70;99.90
46732;DHT22;32477;51.474;5.696;2023-04-16T13:02:35;13.90;99.90
46732;DHT22;32477;51.474;5.696;2023-04-16T13:05:01;14.20;99.90
46732;DHT22;32477;51.474;5.696;2023-04-16T13:07:27;14.70;99.90
46732;DHT22;32477;51.474;5.696;2023-04-16T13:09:53;14.60;99.90
46732;DHT22;32477;51.474;5.696;2023-04-16T13:12:19;14.60;99.90
46732;DHT22;32477;51.474;5.696;2023-04-16T13:14:44;14.60;99.90
46732;DHT22;32477;51.474;5.696;2023-04-16T13:17:10;14.70;99.90
46732;DHT22;32477;51.474;5.696;2023-04-16T13:19:36;15.10;99.90
46732;DHT22;32477;51.474;5.696;2023-04-16T13:22:01;14.90;99.90
46732;DHT22;32477;51.474;5.696;2023-04-16T13:24:27;14.90;99.90
46732;DHT22;32477;51.474;5.696;2023-04-16T13:26:54;15.20;99.90
46732;DHT22;32477;51.474;5.696;2023-04-16T13:29:21;15.40;99.90
46732;DHT22;32477;51.474;5.696;2023-04-16T13:31:50;15.50;99.90
46732;DHT22;32477;51.474;5.696;2023-04-16T13:34:18;15.50;99.90
46732;DHT22;32477;51.474;5.696;2023-04-16T13:36:44;15.50;99.90
46732;DHT22;32477;51.474;5.696;2023-04-16T13:39:10;15.30;99.90
46732;DHT22;32477;51.474;5.696;2023-04-16T13:41:36;15.50;99.90
46732;DHT22;32477;51.474;5.696;2023-04-16T13:44:02;15.60;99.90
46732;DHT22;32477;51.474;5.696;2023-04-16T13:46:28;15.60;99.90
46732;DHT22;32477;51.474;5.696;2023-04-16T13:48:54;15.40;99.90
46732;DHT22;32477;51.474;5.696;2023-04-16T13:51:20;15.10;99.90
46732;DHT22;32477;51.474;5.696;2023-04-16T13:53:46;14.80;99.90
46732;DHT22;32477;51.474;5.696;2023-04-16T13:56:12;14.90;99.90
46732;DHT22;32477;51.474;5.696;2023-04-16T13:58:38;14.90;99.90
46732;DHT22;32477;51.474;5.696;2023-04-16T14:01:04;15.20;99.90
46732;DHT22;32477;51.474;5.696;2023-04-16T14:03:29;15.20;99.90
46732;DHT22;32477;51.474;5.696;2023-04-16T14:06:00;15.30;99.90
46732;DHT22;32477;51.474;5.696;2023-04-16T14:08:26;15.30;99.90
46732;DHT22;32477;51.474;5.696;2023-04-16T14:10:52;15.00;99.90
46732;DHT22;32477;51.474;5.696;2023-04-16T14:13:17;15.20;99.90
46732;DHT22;32477;51.474;5.696;2023-04-16T14:15:43;15.60;99.90
46732;DHT22;32477;51.474;5.696;2023-04-16T14:18:09;15.50;99.90
46732;DHT22;32477;51.474;5.696;2023-04-16T14:20:34;15.10;99.90
46732;DHT22;32477;51.474;5.696;2023-04-16T14:23:00;14.80;99.90
46732;DHT22;32477;51.474;5.696;2023-04-16T14:25:26;14.60;99.90
46732;DHT22;32477;51.474;5.696;2023-04-16T14:27:52;14.60;99.90
46732;DHT22;32477;51.474;5.696;2023-04-16T14:30:18;14.70;99.90
46732;DHT22;32477;51.474;5.696;2023-04-16T14:32:43;14.80;99.90
46732;DHT22;32477;51.474;5.696;2023-04-16T14:35:09;14.90;99.90
46732;DHT22;32477;51.474;5.696;2023-04-16T14:37:35;15.10;99.90
46732;DHT22;32477;51.474;5.696;2023-04-16T14:40:02;15.20;99.90
46732;DHT22;32477;51.474;5.696;2023-04-16T14:42:33;15.00;99.90
46732;DHT22;32477;51.474;5.696;2023-04-16T14:45:01;14.90;99.90
46732;DHT22;32477;51.474;5.696;2023-04-16T14:47:26;14.90;99.90
46732;DHT22;32477;51.474;5.696;2023-04-16T14:49:52;14.60;99.90
46732;DHT22;32477;51.474;5.696;2023-04-16T14:52:18;14.80;99.90
46732;DHT22;32477;51.474;5.696;2023-04-16T14:54:44;14.50;99.90
46732;DHT22;32477;51.474;5.696;2023-04-16T14:57:09;14.30;99.90
46732;DHT22;32477;51.474;5.696;2023-04-16T14:59:35;14.20;99.90
46732;DHT22;32477;51.474;5.696;2023-04-16T15:02:01;14.10;99.90
46732;DHT22;32477;51.474;5.696;2023-04-16T15:04:27;13.90;99.90
46732;DHT22;32477;51.474;5.696;2023-04-16T15:06:53;13.90;99.90
46732;DHT22;32477;51.474;5.696;2023-04-16T15:09:24;13.90;99.90
46732;DHT22;32477;51.474;5.696;2023-04-16T15:11:49;14.10;99.90
46732;DHT22;32477;51.474;5.696;2023-04-16T15:14:15;14.50;99.90
46732;DHT22;32477;51.474;5.696;2023-04-16T15:16:41;14.80;99.90
46732;DHT22;32477;51.474;5.696;2023-04-16T15:19:07;14.60;99.90
46732;DHT22;32477;51.474;5.696;2023-04-16T15:21:32;14.10;99.90
46732;DHT22;32477;51.474;5.696;2023-04-16T15:23:58;13.90;99.90
46732;DHT22;32477;51.474;5.696;2023-04-16T15:26:24;13.90;99.90
46732;DHT22;32477;51.474;5.696;2023-04-16T15:28:50;13.80;99.90
46732;DHT22;32477;51.474;5.696;2023-04-16T15:31:16;13.80;99.90
46732;DHT22;32477;51.474;5.696;2023-04-16T15:33:42;14.10;99.90
46732;DHT22;32477;51.474;5.696;2023-04-16T15:36:07;14.30;99.90
46732;DHT22;32477;51.474;5.696;2023-04-16T15:38:33;14.40;99.90
46732;DHT22;32477;51.474;5.696;2023-04-16T15:40:59;14.20;99.90
46732;DHT22;32477;51.474;5.696;2023-04-16T15:43:28;13.90;99.90